sensor_id;sensor_type;location;lat;lon;timestamp;temperature;humidity
51841;DHT22;37888;53.246;6.658;2023-12-29T00:01:58;9.30;99.90
51841;DHT22;37888;53.246;6.658;2023-12-29T00:04:27;9.30;99.90
51841;DHT22;37888;53.246;6.658;2023-12-29T00:06:53;9.40;99.90
51841;DHT22;37888;53.246;6.658;2023-12-29T00:09:19;9.30;99.90
51841;DHT22;37888;53.246;6.658;2023-12-29T00:11:49;9.30;99.90
51841;DHT22;37888;53.246;6.658;2023-12-29T00:14:14;9.40;99.90
51841;DHT22;37888;53.246;6.658;2023-12-29T00:16:40;9.00;99.90
51841;DHT22;37888;53.246;6.658;2023-12-29T00:19:06;9.40;99.90
51841;DHT22;37888;53.246;6.658;2023-12-29T00:21:31;9.40;99.90
51841;DHT22;37888;53.246;6.658;2023-12-29T00:23:57;9.30;99.90
51841;DHT22;37888;53.246;6.658;2023-12-29T00:26:23;9.50;99.90
51841;DHT22;37888;53.246;6.658;2023-12-29T00:28:49;9.50;99.90
51841;DHT22;37888;53.246;6.658;2023-12-29T00:31:14;9.40;99.90
51841;DHT22;37888;53.246;6.658;2023-12-29T00:33:43;9.50;99.90
51841;DHT22;37888;53.246;6.658;2023-12-29T00:36:16;9.50;99.90
51841;DHT22;37888;53.246;6.658;2023-12-29T00:38:41;9.50;99.90
51841;DHT22;37888;53.246;6.658;2023-12-29T00:41:08;9.40;99.90
51841;DHT22;37888;53.246;6.658;2023-12-29T00:43:33;9.40;99.90
51841;DHT22;37888;53.246;6.658;2023-12-29T00:46:01;9.30;99.90
51841;DHT22;37888;53.246;6.658;2023-12-29T00:48:26;9.20;99.90
51841;DHT22;37888;53.246;6.658;2023-12-29T00:50:52;9.30;99.90
51841;DHT22;37888;53.246;6.658;2023-12-29T00:53:17;9.30;99.90
51841;DHT22;37888;53.246;6.658;2023-12-29T00:55:43;9.30;99.90
51841;DHT22;37888;53.246;6.658;2023-12-29T00:58:09;9.20;99.90
51841;DHT22;37888;53.246;6.658;2023-12-29T01:00:34;9.20;99.90
51841;DHT22;37888;53.246;6.658;2023-12-29T01:03:00;9.20;99.90
51841;DHT22;37888;53.246;6.658;2023-12-29T01:05:25;9.10;99.90
51841;DHT22;37888;53.246;6.658;2023-12-29T01:07:53;9.10;99.90
51841;DHT22;37888;53.246;6.658;2023-12-29T01:10:18;9.10;99.90
51841;DHT22;37888;53.246;6.658;2023-12-29T01:12:44;9.20;99.90
51841;DHT22;37888;53.246;6.658;2023-12-29T01:15:09;9.20;99.90
51841;DHT22;37888;53.246;6.658;2023-12-29T01:17:35;9.10;99.90
51841;DHT22;37888;53.246;6.658;2023-12-29T01:20:01;9.10;99.90
51841;DHT22;37888;53.246;6.658;2023-12-29T01:22:28;9.10;99.90
51841;DHT22;37888;53.246;6.658;2023-12-29T01:24:54;9.10;99.90
51841;DHT22;37888;53.246;6.658;2023-12-29T01:27:19;9.00;99.90
51841;DHT22;37888;53.246;6.658;2023-12-29T01:29:45;7.70;99.90
51841;DHT22;37888;53.246;6.658;2023-12-29T01:32:11;9.00;99.90
51841;DHT22;37888;53.246;6.658;2023-12-29T01:34:36;9.00;99.90
51841;DHT22;37888;53.246;6.658;2023-12-29T01:37:02;9.00;99.90
51841;DHT22;37888;53.246;6.658;2023-12-29T01:39:29;9.00;99.90
51841;DHT22;37888;53.246;6.658;2023-12-29T01:41:55;9.00;99.90
51841;DHT22;37888;53.246;6.658;2023-12-29T01:44:21;9.00;99.90
51841;DHT22;37888;53.246;6.658;2023-12-29T01:46:48;8.90;99.90
51841;DHT22;37888;53.246;6.658;2023-12-29T01:49:17;9.00;99.90
51841;DHT22;37888;53.246;6.658;2023-12-29T01:51:44;9.00;99.90
51841;DHT22;37888;53.246;6.658;2023-12-29T01:54:10;9.10;99.90
51841;DHT22;37888;53.246;6.658;2023-12-29T01:56:36;9.10;99.90
51841;DHT22;37888;53.246;6.658;2023-12-29T01:59:03;9.10;99.90
51841;DHT22;37888;53.246;6.658;2023-12-29T02:01:29;9.10;99.90
51841;DHT22;37888;53.246;6.658;2023-12-29T02:03:55;9.00;99.90
51841;DHT22;37888;53.246;6.658;2023-12-29T02:06:21;9.10;99.90
51841;DHT22;37888;53.246;6.658;2023-12-29T02:08:47;9.00;99.90
51841;DHT22;37888;53.246;6.658;2023-12-29T02:11:13;9.00;99.90
51841;DHT22;37888;53.246;6.658;2023-12-29T02:13:39;8.90;99.90
51841;DHT22;37888;53.246;6.658;2023-12-29T02:16:09;8.90;99.90
51841;DHT22;37888;53.246;6.658;2023-12-29T02:18:37;8.80;99.90
51841;DHT22;37888;53.246;6.658;2023-12-29T02:21:04;8.80;99.90
51841;DHT22;37888;53.246;6.658;2023-12-29T02:23:29;8.70;99.90
51841;DHT22;37888;53.246;6.658;2023-12-29T02:25:55;8.70;99.90
51841;DHT22;37888;53.246;6.658;2023-12-29T02:28:24;8.70;99.90
51841;DHT22;37888;53.246;6.658;2023-12-29T02:31:13;8.70;99.90
51841;DHT22;37888;53.246;6.658;2023-12-29T02:33:40;8.60;99.90
51841;DHT22;37888;53.246;6.658;2023-12-29T02:36:06;8.60;99.90
51841;DHT22;37888;53.246;6.658;2023-12-29T02:38:33;8.50;99.90
51841;DHT22;37888;53.246;6.658;2023-12-29T02:40:59;8.60;99.90
51841;DHT22;37888;53.246;6.658;2023-12-29T02:43:25;8.60;99.90
51841;DHT22;37888;53.246;6.658;2023-12-29T02:45:50;8.50;99.90
51841;DHT22;37888;53.246;6.658;2023-12-29T02:48:16;8.00;99.90
51841;DHT22;37888;53.246;6.658;2023-12-29T02:50:42;8.40;99.90
51841;DHT22;37888;53.246;6.658;2023-12-29T02:53:07;8.40;99.90
51841;DHT22;37888;53.246;6.658;2023-12-29T02:55:33;8.30;99.90
51841;DHT22;37888;53.246;6.658;2023-12-29T02:57:59;8.30;99.90
51841;DHT22;37888;53.246;6.658;2023-12-29T03:00:24;8.20;99.90
51841;DHT22;37888;53.246;6.658;2023-12-29T03:02:50;8.20;99.90
51841;DHT22;37888;53.246;6.658;2023-12-29T03:05:16;8.20;99.90
51841;DHT22;37888;53.246;6.658;2023-12-29T03:07:41;8.30;99.90
51841;DHT22;37888;53.246;6.658;2023-12-29T03:10:07;8.30;99.90
51841;DHT22;37888;53.246;6.658;2023-12-29T03:12:33;8.30;99.90
51841;DHT22;37888;53.246;6.658;2023-12-29T03:14:59;8.30;99.90
51841;DHT22;37888;53.246;6.658;2023-12-29T03:17:24;8.30;99.90
51841;DHT22;37888;53.246;6.658;2023-12-29T03:19:50;8.30;99.90
51841;DHT22;37888;53.246;6.658;2023-12-29T03:22:16;8.30;99.90
51841;DHT22;37888;53.246;6.658;2023-12-29T03:24:41;8.30;99.90
51841;DHT22;37888;53.246;6.658;2023-12-29T03:27:10;8.40;99.90
51841;DHT22;37888;53.246;6.658;2023-12-29T03:29:36;8.40;99.90
51841;DHT22;37888;53.246;6.658;2023-12-29T03:32:02;8.40;99.90
51841;DHT22;37888;53.246;6.658;2023-12-29T03:34:27;8.50;99.90
51841;DHT22;37888;53.246;6.658;2023-12-29T03:36:53;8.50;99.90
51841;DHT22;37888;53.246;6.658;2023-12-29T03:39:19;8.60;99.90
51841;DHT22;37888;53.246;6.658;2023-12-29T03:41:44;8.60;99.90
51841;DHT22;37888;53.246;6.658;2023-12-29T03:44:10;8.60;99.90
51841;DHT22;37888;53.246;6.658;2023-12-29T03:46:36;8.70;99.90
51841;DHT22;37888;53.246;6.658;2023-12-29T03:49:01;8.80;99.90
51841;DHT22;37888;53.246;6.658;2023-12-29T03:51:42;8.70;99.90
51841;DHT22;37888;53.246;6.658;2023-12-29T03:54:08;8.70;99.90
51841;DHT22;37888;53.246;6.658;2023-12-29T03:56:33;8.80;99.90
51841;DHT22;37888;53.246;6.658;2023-12-29T03:58:59;8.70;99.90
51841;DHT22;37888;53.246;6.658;2023-12-29T04:01:25;8.70;99.90
51841;DHT22;37888;53.246;6.658;2023-12-29T04:03:50;8.70;99.90
51841;DHT22;37888;53.246;6.658;2023-12-29T04:06:16;8.70;99.90
51841;DHT22;37888;53.246;6.658;2023-12-29T04:08:41;8.70;99.90
51841;DHT22;37888;53.246;6.658;2023-12-29T04:11:07;8.70;99.90
51841;DHT22;37888;53.246;6.658;2023-12-29T04:13:33;8.70;99.90
51841;DHT22;37888;53.246;6.658;2023-12-29T04:15:58;8.70;99.90
51841;DHT22;37888;53.246;6.658;2023-12-29T04:18:24;8.70;99.90
51841;DHT22;37888;53.246;6.658;2023-12-29T04:20:50;8.70;99.90
51841;DHT22;37888;53.246;6.658;2023-12-29T04:23:16;8.70;99.90
51841;DHT22;37888;53.246;6.658;2023-12-29T04:25:42;8.70;99.90
51841;DHT22;37888;53.246;6.658;2023-12-29T04:28:07;8.60;99.90
51841;DHT22;37888;53.246;6.658;2023-12-29T04:30:33;8.70;99.90
51841;DHT22;37888;53.246;6.658;2023-12-29T04:32:59;8.70;99.90
51841;DHT22;37888;53.246;6.658;2023-12-29T04:35:25;8.70;99.90
51841;DHT22;37888;53.246;6.658;2023-12-29T04:37:51;8.70;99.90
51841;DHT22;37888;53.246;6.658;2023-12-29T04:40:16;8.80;99.90
51841;DHT22;37888;53.246;6.658;2023-12-29T04:42:42;8.80;99.90
51841;DHT22;37888;53.246;6.658;2023-12-29T04:45:08;8.70;99.90
51841;DHT22;37888;53.246;6.658;2023-12-29T04:47:34;8.80;99.90
51841;DHT22;37888;53.246;6.658;2023-12-29T04:49:59;8.70;99.90
51841;DHT22;37888;53.246;6.658;2023-12-29T04:52:25;8.70;99.90
51841;DHT22;37888;53.246;6.658;2023-12-29T04:54:51;8.60;99.90
51841;DHT22;37888;53.246;6.658;2023-12-29T04:57:16;8.70;99.90
51841;DHT22;37888;53.246;6.658;2023-12-29T04:59:42;8.60;99.90
51841;DHT22;37888;53.246;6.658;2023-12-29T05:02:08;8.60;99.90
51841;DHT22;37888;53.246;6.658;2023-12-29T05:04:33;8.40;99.90
51841;DHT22;37888;53.246;6.658;2023-12-29T05:06:59;8.60;99.90
51841;DHT22;37888;53.246;6.658;2023-12-29T05:09:25;8.70;99.90
51841;DHT22;37888;53.246;6.658;2023-12-29T05:11:50;8.70;99.90
51841;DHT22;37888;53.246;6.658;2023-12-29T05:14:16;8.70;99.90
51841;DHT22;37888;53.246;6.658;2023-12-29T05:16:42;8.60;99.90
51841;DHT22;37888;53.246;6.658;2023-12-29T05:19:07;8.60;99.90
51841;DHT22;37888;53.246;6.658;2023-12-29T05:21:33;8.60;99.90
51841;DHT22;37888;53.246;6.658;2023-12-29T05:23:59;8.70;99.90
51841;DHT22;37888;53.246;6.658;2023-12-29T05:26:24;8.70;99.90
51841;DHT22;37888;53.246;6.658;2023-12-29T05:28:50;8.70;99.90
51841;DHT22;37888;53.246;6.658;2023-12-29T05:31:16;8.60;99.90
51841;DHT22;37888;53.246;6.658;2023-12-29T05:33:42;8.70;99.90
51841;DHT22;37888;53.246;6.658;2023-12-29T05:36:08;8.60;99.90
51841;DHT22;37888;53.246;6.658;2023-12-29T05:38:35;8.70;99.90
51841;DHT22;37888;53.246;6.658;2023-12-29T05:41:01;8.70;99.90
51841;DHT22;37888;53.246;6.658;2023-12-29T05:43:27;8.70;99.90
51841;DHT22;37888;53.246;6.658;2023-12-29T05:45:53;8.70;99.90
51841;DHT22;37888;53.246;6.658;2023-12-29T05:48:19;8.70;99.90
51841;DHT22;37888;53.246;6.658;2023-12-29T05:50:44;8.70;99.90
51841;DHT22;37888;53.246;6.658;2023-12-29T05:53:10;8.70;99.90
51841;DHT22;37888;53.246;6.658;2023-12-29T05:55:36;8.70;99.90
51841;DHT22;37888;53.246;6.658;2023-12-29T05:58:01;8.70;99.90
51841;DHT22;37888;53.246;6.658;2023-12-29T06:00:27;7.90;99.90
51841;DHT22;37888;53.246;6.658;2023-12-29T06:02:53;8.70;99.90
51841;DHT22;37888;53.246;6.658;2023-12-29T06:05:18;8.70;99.90
51841;DHT22;37888;53.246;6.658;2023-12-29T06:07:44;8.70;99.90
51841;DHT22;37888;53.246;6.658;2023-12-29T06:10:11;8.70;99.90
51841;DHT22;37888;53.246;6.658;2023-12-29T06:12:37;8.70;99.90
51841;DHT22;37888;53.246;6.658;2023-12-29T06:15:03;7.90;99.90
51841;DHT22;37888;53.246;6.658;2023-12-29T06:17:28;8.80;99.90
51841;DHT22;37888;53.246;6.658;2023-12-29T06:19:54;8.80;99.90
51841;DHT22;37888;53.246;6.658;2023-12-29T06:22:19;8.80;99.90
51841;DHT22;37888;53.246;6.658;2023-12-29T06:24:45;8.80;99.90
51841;DHT22;37888;53.246;6.658;2023-12-29T06:27:11;8.70;99.90
51841;DHT22;37888;53.246;6.658;2023-12-29T06:29:37;8.70;99.90
51841;DHT22;37888;53.246;6.658;2023-12-29T06:32:03;8.70;99.90
51841;DHT22;37888;53.246;6.658;2023-12-29T06:34:29;8.70;99.90
51841;DHT22;37888;53.246;6.658;2023-12-29T06:36:55;8.60;99.90
51841;DHT22;37888;53.246;6.658;2023-12-29T06:39:20;8.60;99.90
51841;DHT22;37888;53.246;6.658;2023-12-29T06:41:46;8.60;99.90
51841;DHT22;37888;53.246;6.658;2023-12-29T06:44:12;8.50;99.90
51841;DHT22;37888;53.246;6.658;2023-12-29T06:46:38;8.60;99.90
51841;DHT22;37888;53.246;6.658;2023-12-29T06:49:03;8.50;99.90
51841;DHT22;37888;53.246;6.658;2023-12-29T06:51:29;8.50;99.90
51841;DHT22;37888;53.246;6.658;2023-12-29T06:53:55;8.40;99.90
51841;DHT22;37888;53.246;6.658;2023-12-29T06:56:21;8.50;99.90
51841;DHT22;37888;53.246;6.658;2023-12-29T06:58:46;8.40;99.90
51841;DHT22;37888;53.246;6.658;2023-12-29T07:01:12;8.30;99.90
51841;DHT22;37888;53.246;6.658;2023-12-29T07:03:38;8.30;99.90
51841;DHT22;37888;53.246;6.658;2023-12-29T07:06:03;8.30;99.90
51841;DHT22;37888;53.246;6.658;2023-12-29T07:08:29;8.30;99.90
51841;DHT22;37888;53.246;6.658;2023-12-29T07:10:55;8.30;99.90
51841;DHT22;37888;53.246;6.658;2023-12-29T07:13:20;8.20;99.90
51841;DHT22;37888;53.246;6.658;2023-12-29T07:15:46;8.20;99.90
51841;DHT22;37888;53.246;6.658;2023-12-29T07:18:12;8.20;99.90
51841;DHT22;37888;53.246;6.658;2023-12-29T07:20:37;8.20;99.90
51841;DHT22;37888;53.246;6.658;2023-12-29T07:23:03;8.20;99.90
51841;DHT22;37888;53.246;6.658;2023-12-29T07:25:29;8.20;99.90
51841;DHT22;37888;53.246;6.658;2023-12-29T07:27:54;8.10;99.90
51841;DHT22;37888;53.246;6.658;2023-12-29T07:30:20;8.10;99.90
51841;DHT22;37888;53.246;6.658;2023-12-29T07:32:46;8.10;99.90
51841;DHT22;37888;53.246;6.658;2023-12-29T07:35:11;8.20;99.90
51841;DHT22;37888;53.246;6.658;2023-12-29T07:37:40;8.20;99.90
51841;DHT22;37888;53.246;6.658;2023-12-29T07:40:06;8.30;99.90
51841;DHT22;37888;53.246;6.658;2023-12-29T07:42:33;8.30;99.90
51841;DHT22;37888;53.246;6.658;2023-12-29T07:44:59;8.30;99.90
51841;DHT22;37888;53.246;6.658;2023-12-29T07:47:25;8.30;99.90
51841;DHT22;37888;53.246;6.658;2023-12-29T07:49:51;8.30;99.90
51841;DHT22;37888;53.246;6.658;2023-12-29T07:52:17;8.20;99.90
51841;DHT22;37888;53.246;6.658;2023-12-29T07:54:42;8.20;99.90
51841;DHT22;37888;53.246;6.658;2023-12-29T07:57:08;8.30;99.90
51841;DHT22;37888;53.246;6.658;2023-12-29T07:59:34;8.20;99.90
51841;DHT22;37888;53.246;6.658;2023-12-29T08:02:00;8.20;99.90
51841;DHT22;37888;53.246;6.658;2023-12-29T08:04:26;8.20;99.90
51841;DHT22;37888;53.246;6.658;2023-12-29T08:06:51;8.20;99.90
51841;DHT22;37888;53.246;6.658;2023-12-29T08:09:17;8.10;99.90
51841;DHT22;37888;53.246;6.658;2023-12-29T08:11:43;8.10;99.90
51841;DHT22;37888;53.246;6.658;2023-12-29T08:14:08;8.10;99.90
51841;DHT22;37888;53.246;6.658;2023-12-29T08:16:38;8.10;99.90
51841;DHT22;37888;53.246;6.658;2023-12-29T08:19:04;8.20;99.90
51841;DHT22;37888;53.246;6.658;2023-12-29T08:21:30;8.20;99.90
51841;DHT22;37888;53.246;6.658;2023-12-29T08:23:55;8.30;99.90
51841;DHT22;37888;53.246;6.658;2023-12-29T08:26:21;8.20;99.90
51841;DHT22;37888;53.246;6.658;2023-12-29T08:28:46;8.20;99.90
51841;DHT22;37888;53.246;6.658;2023-12-29T08:31:12;8.30;99.90
51841;DHT22;37888;53.246;6.658;2023-12-29T08:33:38;8.30;99.90
51841;DHT22;37888;53.246;6.658;2023-12-29T08:36:04;8.30;99.90
51841;DHT22;37888;53.246;6.658;2023-12-29T08:38:30;8.30;99.90
51841;DHT22;37888;53.246;6.658;2023-12-29T08:40:56;8.30;99.90
51841;DHT22;37888;53.246;6.658;2023-12-29T08:43:22;8.30;99.90
51841;DHT22;37888;53.246;6.658;2023-12-29T08:45:48;8.20;99.90
51841;DHT22;37888;53.246;6.658;2023-12-29T08:48:13;8.20;99.90
51841;DHT22;37888;53.246;6.658;2023-12-29T08:50:39;8.20;99.90
51841;DHT22;37888;53.246;6.658;2023-12-29T08:53:04;8.30;99.90
51841;DHT22;37888;53.246;6.658;2023-12-29T08:55:30;8.30;99.90
51841;DHT22;37888;53.246;6.658;2023-12-29T08:57:56;8.30;99.90
51841;DHT22;37888;53.246;6.658;2023-12-29T09:00:22;8.30;99.90
51841;DHT22;37888;53.246;6.658;2023-12-29T09:02:48;8.30;99.90
51841;DHT22;37888;53.246;6.658;2023-12-29T09:05:14;8.30;99.90
51841;DHT22;37888;53.246;6.658;2023-12-29T09:07:39;8.30;99.90
51841;DHT22;37888;53.246;6.658;2023-12-29T09:10:05;8.30;99.90
51841;DHT22;37888;53.246;6.658;2023-12-29T09:12:33;8.30;99.90
51841;DHT22;37888;53.246;6.658;2023-12-29T09:14:59;8.30;99.90
51841;DHT22;37888;53.246;6.658;2023-12-29T09:17:25;8.30;99.90
51841;DHT22;37888;53.246;6.658;2023-12-29T09:19:50;8.40;99.90
51841;DHT22;37888;53.246;6.658;2023-12-29T09:22:16;8.40;99.90
51841;DHT22;37888;53.246;6.658;2023-12-29T09:24:42;8.30;99.90
51841;DHT22;37888;53.246;6.658;2023-12-29T09:27:07;8.40;99.90
51841;DHT22;37888;53.246;6.658;2023-12-29T09:29:34;8.50;99.90
51841;DHT22;37888;53.246;6.658;2023-12-29T09:31:59;8.50;99.90
51841;DHT22;37888;53.246;6.658;2023-12-29T09:34:25;8.60;99.90
51841;DHT22;37888;53.246;6.658;2023-12-29T09:36:51;8.60;99.90
51841;DHT22;37888;53.246;6.658;2023-12-29T09:39:16;8.70;99.90
51841;DHT22;37888;53.246;6.658;2023-12-29T09:41:43;8.70;99.90
51841;DHT22;37888;53.246;6.658;2023-12-29T09:44:14;8.70;99.90
51841;DHT22;37888;53.246;6.658;2023-12-29T09:46:41;8.70;99.90
51841;DHT22;37888;53.246;6.658;2023-12-29T09:49:07;8.80;99.90
51841;DHT22;37888;53.246;6.658;2023-12-29T09:51:33;8.80;99.90
51841;DHT22;37888;53.246;6.658;2023-12-29T09:53:59;8.80;99.90
51841;DHT22;37888;53.246;6.658;2023-12-29T09:56:25;8.90;99.90
51841;DHT22;37888;53.246;6.658;2023-12-29T09:58:50;8.90;99.90
51841;DHT22;37888;53.246;6.658;2023-12-29T10:01:20;8.90;99.90
51841;DHT22;37888;53.246;6.658;2023-12-29T10:03:47;8.90;99.90
51841;DHT22;37888;53.246;6.658;2023-12-29T10:06:12;8.90;99.90
51841;DHT22;37888;53.246;6.658;2023-12-29T10:08:38;8.90;99.90
51841;DHT22;37888;53.246;6.658;2023-12-29T10:11:08;8.90;99.90
51841;DHT22;37888;53.246;6.658;2023-12-29T10:13:36;9.00;99.90
51841;DHT22;37888;53.246;6.658;2023-12-29T10:18:37;9.00;99.90
51841;DHT22;37888;53.246;6.658;2023-12-29T10:21:17;9.10;99.90
51841;DHT22;37888;53.246;6.658;2023-12-29T10:26:15;9.10;99.90
51841;DHT22;37888;53.246;6.658;2023-12-29T10:28:41;9.10;99.90
51841;DHT22;37888;53.246;6.658;2023-12-29T10:31:07;9.10;99.90
51841;DHT22;37888;53.246;6.658;2023-12-29T10:33:35;9.10;99.90
51841;DHT22;37888;53.246;6.658;2023-12-29T10:36:01;9.10;99.90
51841;DHT22;37888;53.246;6.658;2023-12-29T10:38:32;9.10;99.90
51841;DHT22;37888;53.246;6.658;2023-12-29T10:41:11;9.10;99.90
51841;DHT22;37888;53.246;6.658;2023-12-29T10:43:43;9.10;99.90
51841;DHT22;37888;53.246;6.658;2023-12-29T10:46:09;9.10;99.90
51841;DHT22;37888;53.246;6.658;2023-12-29T10:48:35;9.10;99.90
51841;DHT22;37888;53.246;6.658;2023-12-29T10:51:04;9.10;99.90
51841;DHT22;37888;53.246;6.658;2023-12-29T10:53:34;9.00;99.90
51841;DHT22;37888;53.246;6.658;2023-12-29T10:55:59;9.00;99.90
51841;DHT22;37888;53.246;6.658;2023-12-29T10:58:26;8.90;99.90
51841;DHT22;37888;53.246;6.658;2023-12-29T11:00:58;9.00;99.90
51841;DHT22;37888;53.246;6.658;2023-12-29T11:03:25;9.00;99.90
51841;DHT22;37888;53.246;6.658;2023-12-29T11:05:51;8.90;99.90
51841;DHT22;37888;53.246;6.658;2023-12-29T11:08:23;8.90;99.90
51841;DHT22;37888;53.246;6.658;2023-12-29T11:10:49;8.90;99.90
51841;DHT22;37888;53.246;6.658;2023-12-29T11:13:15;8.90;99.90
51841;DHT22;37888;53.246;6.658;2023-12-29T11:15:42;8.80;99.90
51841;DHT22;37888;53.246;6.658;2023-12-29T11:18:07;8.80;99.90
51841;DHT22;37888;53.246;6.658;2023-12-29T11:20:34;8.90;99.90
51841;DHT22;37888;53.246;6.658;2023-12-29T11:23:01;9.00;99.90
51841;DHT22;37888;53.246;6.658;2023-12-29T11:25:26;8.90;99.90
51841;DHT22;37888;53.246;6.658;2023-12-29T11:27:53;8.80;99.90
51841;DHT22;37888;53.246;6.658;2023-12-29T11:30:19;8.80;99.90
51841;DHT22;37888;53.246;6.658;2023-12-29T11:32:59;8.80;99.90
51841;DHT22;37888;53.246;6.658;2023-12-29T11:35:37;8.80;99.90
51841;DHT22;37888;53.246;6.658;2023-12-29T11:43:20;8.90;99.90
51841;DHT22;37888;53.246;6.658;2023-12-29T11:45:46;8.80;99.90
51841;DHT22;37888;53.246;6.658;2023-12-29T11:48:12;8.80;99.90
51841;DHT22;37888;53.246;6.658;2023-12-29T11:50:39;8.70;99.90
51841;DHT22;37888;53.246;6.658;2023-12-29T11:53:07;8.70;99.90
51841;DHT22;37888;53.246;6.658;2023-12-29T11:55:37;8.70;99.90
51841;DHT22;37888;53.246;6.658;2023-12-29T12:00:47;8.80;99.90
51841;DHT22;37888;53.246;6.658;2023-12-29T12:03:27;8.90;99.90
51841;DHT22;37888;53.246;6.658;2023-12-29T12:05:54;9.10;99.90
51841;DHT22;37888;53.246;6.658;2023-12-29T12:08:31;9.20;99.90
51841;DHT22;37888;53.246;6.658;2023-12-29T12:13:45;9.30;99.90
51841;DHT22;37888;53.246;6.658;2023-12-29T12:18:55;9.50;99.90
51841;DHT22;37888;53.246;6.658;2023-12-29T12:23:47;9.60;99.90
51841;DHT22;37888;53.246;6.658;2023-12-29T12:26:13;9.50;99.90
51841;DHT22;37888;53.246;6.658;2023-12-29T12:28:39;9.40;99.90
51841;DHT22;37888;53.246;6.658;2023-12-29T12:31:09;9.30;99.90
51841;DHT22;37888;53.246;6.658;2023-12-29T12:33:37;9.20;99.90
51841;DHT22;37888;53.246;6.658;2023-12-29T12:36:03;9.10;99.90
51841;DHT22;37888;53.246;6.658;2023-12-29T12:38:29;9.00;99.90
51841;DHT22;37888;53.246;6.658;2023-12-29T12:40:57;9.00;99.90
51841;DHT22;37888;53.246;6.658;2023-12-29T12:43:23;8.90;99.90
51841;DHT22;37888;53.246;6.658;2023-12-29T12:45:54;9.00;99.90
51841;DHT22;37888;53.246;6.658;2023-12-29T12:48:24;8.90;99.90
51841;DHT22;37888;53.246;6.658;2023-12-29T12:50:54;8.90;99.90
51841;DHT22;37888;53.246;6.658;2023-12-29T12:53:22;8.90;99.90
51841;DHT22;37888;53.246;6.658;2023-12-29T12:55:48;8.70;99.90
51841;DHT22;37888;53.246;6.658;2023-12-29T12:58:18;8.60;99.90
51841;DHT22;37888;53.246;6.658;2023-12-29T13:00:45;8.60;99.90
51841;DHT22;37888;53.246;6.658;2023-12-29T13:03:10;8.50;99.90
51841;DHT22;37888;53.246;6.658;2023-12-29T13:05:36;8.50;99.90
51841;DHT22;37888;53.246;6.658;2023-12-29T13:08:03;8.40;99.90
51841;DHT22;37888;53.246;6.658;2023-12-29T13:10:29;8.40;99.90
51841;DHT22;37888;53.246;6.658;2023-12-29T13:12:55;8.40;99.90
51841;DHT22;37888;53.246;6.658;2023-12-29T13:15:21;8.40;99.90
51841;DHT22;37888;53.246;6.658;2023-12-29T13:17:51;8.30;99.90
51841;DHT22;37888;53.246;6.658;2023-12-29T13:20:16;8.30;99.90
51841;DHT22;37888;53.246;6.658;2023-12-29T13:22:42;8.30;99.90
51841;DHT22;37888;53.246;6.658;2023-12-29T13:25:08;8.20;99.90
51841;DHT22;37888;53.246;6.658;2023-12-29T13:27:36;8.20;99.90
51841;DHT22;37888;53.246;6.658;2023-12-29T13:30:02;8.20;99.90
51841;DHT22;37888;53.246;6.658;2023-12-29T13:32:28;8.20;99.90
51841;DHT22;37888;53.246;6.658;2023-12-29T13:34:56;8.20;99.90
51841;DHT22;37888;53.246;6.658;2023-12-29T13:39:55;8.20;99.90
51841;DHT22;37888;53.246;6.658;2023-12-29T13:42:22;8.20;99.90
51841;DHT22;37888;53.246;6.658;2023-12-29T13:44:49;8.20;99.90
51841;DHT22;37888;53.246;6.658;2023-12-29T13:47:15;8.20;99.90
51841;DHT22;37888;53.246;6.658;2023-12-29T13:49:42;8.20;99.90
51841;DHT22;37888;53.246;6.658;2023-12-29T13:52:08;8.20;99.90
51841;DHT22;37888;53.246;6.658;2023-12-29T13:54:40;8.10;99.90
51841;DHT22;37888;53.246;6.658;2023-12-29T13:57:07;8.20;99.90
51841;DHT22;37888;53.246;6.658;2023-12-29T13:59:32;8.10;99.90
51841;DHT22;37888;53.246;6.658;2023-12-29T14:01:59;8.10;99.90
51841;DHT22;37888;53.246;6.658;2023-12-29T14:04:25;8.10;99.90
51841;DHT22;37888;53.246;6.658;2023-12-29T14:06:54;8.00;99.90
51841;DHT22;37888;53.246;6.658;2023-12-29T14:09:24;8.00;99.90
51841;DHT22;37888;53.246;6.658;2023-12-29T14:11:50;7.90;99.90
51841;DHT22;37888;53.246;6.658;2023-12-29T14:14:23;8.00;99.90
51841;DHT22;37888;53.246;6.658;2023-12-29T14:16:50;8.00;99.90
51841;DHT22;37888;53.246;6.658;2023-12-29T14:19:16;8.00;99.90
51841;DHT22;37888;53.246;6.658;2023-12-29T14:21:41;8.00;99.90
51841;DHT22;37888;53.246;6.658;2023-12-29T14:24:09;8.00;99.90
51841;DHT22;37888;53.246;6.658;2023-12-29T14:26:35;8.10;99.90
51841;DHT22;37888;53.246;6.658;2023-12-29T14:29:05;8.10;99.90
51841;DHT22;37888;53.246;6.658;2023-12-29T14:31:34;8.10;99.90
51841;DHT22;37888;53.246;6.658;2023-12-29T14:34:01;8.00;99.90
51841;DHT22;37888;53.246;6.658;2023-12-29T14:36:26;8.10;99.90
51841;DHT22;37888;53.246;6.658;2023-12-29T14:38:52;8.00;99.90
51841;DHT22;37888;53.246;6.658;2023-12-29T14:41:18;8.00;99.90
51841;DHT22;37888;53.246;6.658;2023-12-29T14:43:43;7.90;99.90
51841;DHT22;37888;53.246;6.658;2023-12-29T14:46:09;7.90;99.90
51841;DHT22;37888;53.246;6.658;2023-12-29T14:48:35;7.80;99.90
51841;DHT22;37888;53.246;6.658;2023-12-29T14:51:00;7.80;99.90
51841;DHT22;37888;53.246;6.658;2023-12-29T14:53:26;7.00;99.90
51841;DHT22;37888;53.246;6.658;2023-12-29T14:55:51;7.70;99.90
51841;DHT22;37888;53.246;6.658;2023-12-29T14:58:17;7.80;99.90
51841;DHT22;37888;53.246;6.658;2023-12-29T15:00:43;7.70;99.90
51841;DHT22;37888;53.246;6.658;2023-12-29T15:03:11;7.80;99.90
51841;DHT22;37888;53.246;6.658;2023-12-29T15:05:37;7.80;99.90
51841;DHT22;37888;53.246;6.658;2023-12-29T15:08:03;7.80;99.90
51841;DHT22;37888;53.246;6.658;2023-12-29T15:10:29;7.80;99.90
51841;DHT22;37888;53.246;6.658;2023-12-29T15:12:54;7.80;99.90
51841;DHT22;37888;53.246;6.658;2023-12-29T15:15:20;7.80;99.90
51841;DHT22;37888;53.246;6.658;2023-12-29T15:17:46;7.80;99.90
51841;DHT22;37888;53.246;6.658;2023-12-29T15:20:11;7.80;99.90
51841;DHT22;37888;53.246;6.658;2023-12-29T15:22:37;7.80;99.90
51841;DHT22;37888;53.246;6.658;2023-12-29T15:25:03;7.80;99.90
51841;DHT22;37888;53.246;6.658;2023-12-29T15:27:28;7.80;99.90
51841;DHT22;37888;53.246;6.658;2023-12-29T15:29:54;7.80;99.90
51841;DHT22;37888;53.246;6.658;2023-12-29T15:32:19;7.90;99.90
51841;DHT22;37888;53.246;6.658;2023-12-29T15:34:45;7.80;99.90
51841;DHT22;37888;53.246;6.658;2023-12-29T15:37:11;7.80;99.90
51841;DHT22;37888;53.246;6.658;2023-12-29T15:39:36;7.80;99.90
51841;DHT22;37888;53.246;6.658;2023-12-29T15:42:02;7.80;99.90
51841;DHT22;37888;53.246;6.658;2023-12-29T15:44:28;7.80;99.90
51841;DHT22;37888;53.246;6.658;2023-12-29T15:46:53;7.80;99.90
51841;DHT22;37888;53.246;6.658;2023-12-29T15:49:20;7.90;99.90
51841;DHT22;37888;53.246;6.658;2023-12-29T15:51:46;7.90;99.90
51841;DHT22;37888;53.246;6.658;2023-12-29T15:54:11;7.90;99.90
51841;DHT22;37888;53.246;6.658;2023-12-29T15:56:37;7.90;99.90
51841;DHT22;37888;53.246;6.658;2023-12-29T15:59:02;7.90;99.90
51841;DHT22;37888;53.246;6.658;2023-12-29T16:01:28;7.90;99.90
51841;DHT22;37888;53.246;6.658;2023-12-29T16:03:54;7.90;99.90